Time;durP1;ratioP1;P1;durP2;ratioP2;P2;SDS_P1;SDS_P2;PMS_P1;PMS_P2;Temp;Humidity;BMP_temperature;BMP_pressure;BME280_temperature;BME280_humidity;BME280_pressure;Samples;Min_cycle;Max_cycle;Signal;HPM_P1;HPM_P2
2023/08/15 00:02:49;;;;;;;15.73;7.32;;;;;;;;;;6206965;23;20166;-91
2023/08/15 00:05:54;;;;;;;12.65;7.70;;;;;;;;;;6208396;23;20287;-89
2023/08/15 00:08:59;;;;;;;13.32;7.38;;;;;;;;;;6208321;23;20214;-88
2023/08/15 00:12:05;;;;;;;13.60;7.85;;;;;;;;;;6207599;23;20175;-91
2023/08/15 00:15:12;;;;;;;14.23;7.80;;;;;;;;;;6207051;23;20163;-89
2023/08/15 00:18:17;;;;;;;16.30;7.90;;;;;;;;;;6208252;23;20214;-90
2023/08/15 00:21:23;;;;;;;13.90;7.63;;;;;;;;;;6209604;23;20261;-91
2023/08/15 00:24:28;;;;;;;12.40;7.75;;;;;;;;;;6208884;23;20163;-91
2023/08/15 00:27:33;;;;;;;11.95;7.63;;;;;;;;;;6208328;23;20214;-89
2023/08/15 00:30:40;;;;;;;9.88;7.90;;;;;;;;;;6209451;23;20216;-90
2023/08/15 00:33:45;;;;;;;14.57;8.23;;;;;;;;;;6209041;23;20237;-89
2023/08/15 00:36:49;;;;;;;13.77;7.28;;;;;;;;;;6207446;23;20174;-89
2023/08/15 00:39:55;;;;;;;15.32;7.85;;;;;;;;;;6209285;23;20170;-90
2023/08/15 00:43:00;;;;;;;11.20;7.53;;;;;;;;;;6208393;23;20690;-89
2023/08/15 00:46:08;;;;;;;12.90;7.80;;;;;;;;;;6209847;23;20202;-90
2023/08/15 00:49:13;;;;;;;13.35;7.72;;;;;;;;;;6209678;23;20207;-88
2023/08/15 00:52:18;;;;;;;12.90;7.15;;;;;;;;;;6179648;23;20167;-88
2023/08/15 00:55:23;;;;;;;17.63;7.93;;;;;;;;;;6178986;23;20187;-90
2023/08/15 00:58:29;;;;;;;18.17;8.63;;;;;;;;;;6177687;23;20650;-88
2023/08/15 01:01:37;;;;;;;14.25;8.10;;;;;;;;;;6178578;23;20151;-89
2023/08/15 01:04:42;;;;;;;14.63;7.60;;;;;;;;;;6178268;23;20502;-89
2023/08/15 01:07:48;;;;;;;15.70;7.80;;;;;;;;;;6179005;23;20164;-90
2023/08/15 01:10:53;;;;;;;15.30;7.63;;;;;;;;;;6178877;23;20243;-90
2023/08/15 01:14:00;;;;;;;16.38;7.50;;;;;;;;;;6178296;23;20172;-88
2023/08/15 01:17:08;;;;;;;12.02;7.00;;;;;;;;;;6178822;23;20223;-89
2023/08/15 01:20:15;;;;;;;10.40;7.55;;;;;;;;;;6177386;23;20196;-90
2023/08/15 01:23:22;;;;;;;11.25;7.07;;;;;;;;;;6178312;23;20171;-91
2023/08/15 01:26:28;;;;;;;18.25;7.55;;;;;;;;;;6176909;23;20687;-89
2023/08/15 01:29:34;;;;;;;12.63;7.97;;;;;;;;;;6177622;23;20176;-87
2023/08/15 01:32:43;;;;;;;15.80;8.35;;;;;;;;;;6179990;23;20176;-90
2023/08/15 01:35:52;;;;;;;16.55;8.27;;;;;;;;;;6178426;23;20175;-88
2023/08/15 01:38:58;;;;;;;13.93;7.88;;;;;;;;;;6182268;23;20187;-89
2023/08/15 01:42:05;;;;;;;16.95;8.10;;;;;;;;;;6178733;23;20514;-88
2023/08/15 01:45:11;;;;;;;12.20;7.50;;;;;;;;;;6179000;23;20223;-88
2023/08/15 01:48:16;;;;;;;14.40;8.43;;;;;;;;;;6179273;23;20168;-90
2023/08/15 01:51:21;;;;;;;13.35;8.13;;;;;;;;;;6178256;23;20180;-90
2023/08/15 01:54:26;;;;;;;15.80;8.45;;;;;;;;;;6178108;23;20171;-91
2023/08/15 01:57:32;;;;;;;16.88;7.85;;;;;;;;;;6179304;23;20175;-90
2023/08/15 02:00:37;;;;;;;13.70;8.18;;;;;;;;;;6179302;23;20180;-89
2023/08/15 02:03:42;;;;;;;13.45;9.13;;;;;;;;;;6179353;23;20167;-91
2023/08/15 02:06:48;;;;;;;14.77;9.13;;;;;;;;;;6178806;23;20168;-89
2023/08/15 02:09:53;;;;;;;21.50;8.63;;;;;;;;;;6180033;23;20224;-89
2023/08/15 02:13:00;;;;;;;17.17;8.40;;;;;;;;;;6178205;23;20233;-90
2023/08/15 02:16:05;;;;;;;14.80;8.60;;;;;;;;;;6179569;23;20172;-90
2023/08/15 02:19:10;;;;;;;13.05;8.27;;;;;;;;;;6180635;23;20207;-90
2023/08/15 02:22:16;;;;;;;19.60;8.40;;;;;;;;;;6179316;23;20180;-89
2023/08/15 02:25:22;;;;;;;15.68;9.32;;;;;;;;;;6196556;23;20192;-88
2023/08/15 02:28:31;;;;;;;12.15;8.10;;;;;;;;;;6177958;23;20213;-88
2023/08/15 02:31:36;;;;;;;13.80;8.13;;;;;;;;;;6176779;23;20250;-89
2023/08/15 02:34:43;;;;;;;15.10;8.20;;;;;;;;;;6178582;23;20167;-90
2023/08/15 02:37:48;;;;;;;11.55;8.18;;;;;;;;;;6178961;23;20171;-88
2023/08/15 02:40:53;;;;;;;14.43;8.20;;;;;;;;;;6177584;23;20184;-89
2023/08/15 02:44:00;;;;;;;16.27;8.80;;;;;;;;;;6177619;23;20160;-89
2023/08/15 02:47:07;;;;;;;13.13;7.35;;;;;;;;;;6178539;23;20168;-89
2023/08/15 02:50:12;;;;;;;18.00;8.07;;;;;;;;;;6189523;23;20199;-87
2023/08/15 02:53:17;;;;;;;17.27;8.27;;;;;;;;;;6226989;23;20210;-90
2023/08/15 02:56:22;;;;;;;13.60;7.90;;;;;;;;;;6208432;23;20171;-91
2023/08/15 02:59:29;;;;;;;13.93;7.97;;;;;;;;;;6207176;23;20187;-89
2023/08/15 03:02:34;;;;;;;11.65;7.32;;;;;;;;;;6208111;23;20175;-90
2023/08/15 03:05:39;;;;;;;14.02;7.88;;;;;;;;;;6206387;23;20171;-89
2023/08/15 03:08:44;;;;;;;19.92;8.20;;;;;;;;;;6205610;23;20263;-90
2023/08/15 03:11:49;;;;;;;11.10;7.45;;;;;;;;;;6205787;23;20689;-89
2023/08/15 03:14:57;;;;;;;15.90;7.80;;;;;;;;;;6206077;23;20187;-89
2023/08/15 03:18:03;;;;;;;12.50;7.25;;;;;;;;;;6206244;23;20222;-89
2023/08/15 03:21:09;;;;;;;14.35;7.45;;;;;;;;;;6206072;23;20178;-91
2023/08/15 03:24:15;;;;;;;13.43;6.80;;;;;;;;;;6207184;23;20182;-88
2023/08/15 03:27:20;;;;;;;13.13;7.13;;;;;;;;;;6207529;23;20218;-90
2023/08/15 03:30:29;;;;;;;14.93;8.10;;;;;;;;;;6210212;23;20175;-89
2023/08/15 03:33:36;;;;;;;14.52;7.75;;;;;;;;;;6216508;23;20253;-88
2023/08/15 03:36:45;;;;;;;14.73;7.15;;;;;;;;;;6219938;23;20487;-86
2023/08/15 03:39:50;;;;;;;17.40;7.50;;;;;;;;;;6210668;23;20174;-89
2023/08/15 03:42:55;;;;;;;13.45;7.32;;;;;;;;;;6208591;23;20168;-90
2023/08/15 03:46:03;;;;;;;15.48;6.82;;;;;;;;;;6208459;23;20163;-88
2023/08/15 03:49:08;;;;;;;17.13;8.07;;;;;;;;;;6208493;23;20247;-88
2023/08/15 03:52:13;;;;;;;11.48;7.25;;;;;;;;;;6209783;23;20159;-89
2023/08/15 03:55:18;;;;;;;16.92;7.90;;;;;;;;;;6210410;23;20166;-89
2023/08/15 03:58:24;;;;;;;13.13;8.02;;;;;;;;;;6208347;23;20171;-90
2023/08/15 04:01:31;;;;;;;12.80;7.45;;;;;;;;;;6209173;23;20166;-89
2023/08/15 04:04:36;;;;;;;15.88;8.25;;;;;;;;;;6210264;23;20159;-87
2023/08/15 04:07:42;;;;;;;14.60;7.65;;;;;;;;;;6210653;23;20206;-89
2023/08/15 04:10:48;;;;;;;14.85;7.90;;;;;;;;;;6210275;23;20234;-89
2023/08/15 04:13:55;;;;;;;16.63;8.18;;;;;;;;;;6210443;23;20173;-88
2023/08/15 04:17:02;;;;;;;13.65;6.88;;;;;;;;;;6210201;23;20163;-87
2023/08/15 04:20:09;;;;;;;12.90;7.25;;;;;;;;;;6210779;23;20254;-90
2023/08/15 04:23:14;;;;;;;12.18;7.10;;;;;;;;;;6209906;23;20171;-88
2023/08/15 04:26:20;;;;;;;14.70;7.07;;;;;;;;;;6210467;23;20214;-88
2023/08/15 04:29:26;;;;;;;15.88;7.47;;;;;;;;;;6210681;23;20183;-88
2023/08/15 04:32:32;;;;;;;14.52;7.35;;;;;;;;;;6211313;23;20163;-88
2023/08/15 04:35:39;;;;;;;14.32;7.30;;;;;;;;;;6211032;23;20246;-88
2023/08/15 04:38:44;;;;;;;16.05;7.45;;;;;;;;;;6212117;23;20182;-88
2023/08/15 04:41:49;;;;;;;10.82;6.85;;;;;;;;;;6210499;23;20163;-88
2023/08/15 04:44:56;;;;;;;11.30;7.40;;;;;;;;;;6232328;23;20226;-87
2023/08/15 04:48:02;;;;;;;12.68;6.63;;;;;;;;;;6211439;23;20530;-90
2023/08/15 04:51:08;;;;;;;19.30;7.30;;;;;;;;;;6209779;23;20230;-89
2023/08/15 04:54:12;;;;;;;12.18;7.10;;;;;;;;;;6208368;23;20233;-90
2023/08/15 04:57:18;;;;;;;13.75;7.70;;;;;;;;;;6207305;23;20174;-89
2023/08/15 05:00:23;;;;;;;12.90;8.10;;;;;;;;;;6206571;23;20255;-88
2023/08/15 05:03:30;;;;;;;17.92;8.90;;;;;;;;;;6208226;23;20167;-89
2023/08/15 05:06:35;;;;;;;16.40;8.95;;;;;;;;;;6207435;23;20183;-89
2023/08/15 05:09:40;;;;;;;15.75;7.72;;;;;;;;;;6209651;23;20191;-87
2023/08/15 05:12:46;;;;;;;18.42;8.05;;;;;;;;;;6207613;23;20537;-89
2023/08/15 05:15:51;;;;;;;14.85;8.05;;;;;;;;;;6208232;23;20168;-88
2023/08/15 05:18:57;;;;;;;17.27;8.60;;;;;;;;;;6210220;23;20167;-91
2023/08/15 05:22:03;;;;;;;15.80;7.68;;;;;;;;;;6210125;23;20171;-90
2023/08/15 05:25:09;;;;;;;13.43;7.30;;;;;;;;;;6210051;23;20175;-89
2023/08/15 05:28:21;;;;;;;14.45;7.78;;;;;;;;;;6209721;23;20171;-89
2023/08/15 05:31:26;;;;;;;15.23;7.43;;;;;;;;;;6210221;23;20163;-88
2023/08/15 05:34:34;;;;;;;10.85;7.13;;;;;;;;;;6212534;23;20693;-90
2023/08/15 05:37:39;;;;;;;11.80;6.65;;;;;;;;;;6211215;23;20231;-89
2023/08/15 05:40:44;;;;;;;12.63;6.68;;;;;;;;;;6214471;23;20191;-89
2023/08/15 05:43:49;;;;;;;9.85;6.63;;;;;;;;;;6211619;23;20171;-87
2023/08/15 05:46:54;;;;;;;10.52;7.20;;;;;;;;;;6210165;23;20170;-89
2023/08/15 05:50:01;;;;;;;15.52;6.38;;;;;;;;;;6211510;23;20194;-90
2023/08/15 05:53:06;;;;;;;13.55;7.00;;;;;;;;;;6209994;23;20219;-89
2023/08/15 05:56:11;;;;;;;12.48;6.47;;;;;;;;;;6210872;23;20170;-90
2023/08/15 05:59:16;;;;;;;10.10;6.43;;;;;;;;;;6211040;23;20171;-89
2023/08/15 06:02:21;;;;;;;13.95;6.40;;;;;;;;;;6210546;23;20167;-89
2023/08/15 06:05:30;;;;;;;12.27;6.20;;;;;;;;;;6210229;23;20147;-90
2023/08/15 06:08:35;;;;;;;14.73;6.03;;;;;;;;;;6211264;23;20175;-90
2023/08/15 06:11:40;;;;;;;7.05;5.70;;;;;;;;;;6209211;23;20279;-89
2023/08/15 06:14:45;;;;;;;13.48;5.90;;;;;;;;;;6212088;23;20195;-90
2023/08/15 06:17:51;;;;;;;9.38;6.28;;;;;;;;;;6212662;23;20174;-89
2023/08/15 06:20:58;;;;;;;10.95;6.25;;;;;;;;;;6212449;23;20203;-89
2023/08/15 06:24:03;;;;;;;8.98;6.25;;;;;;;;;;6212172;23;20159;-93
2023/08/15 06:27:08;;;;;;;9.40;5.60;;;;;;;;;;6211549;23;20166;-91
2023/08/15 06:30:14;;;;;;;9.45;5.30;;;;;;;;;;6211914;23;20151;-89
2023/08/15 06:33:19;;;;;;;10.90;5.65;;;;;;;;;;6208719;23;20179;-89
2023/08/15 06:36:25;;;;;;;18.02;6.07;;;;;;;;;;6208361;23;20175;-90
2023/08/15 06:39:30;;;;;;;8.75;5.28;;;;;;;;;;6209526;23;20238;-89
2023/08/15 06:42:35;;;;;;;19.23;7.85;;;;;;;;;;6208966;23;20613;-90
2023/08/15 06:45:41;;;;;;;9.13;5.25;;;;;;;;;;6211672;23;20151;-90
2023/08/15 06:48:48;;;;;;;9.77;5.68;;;;;;;;;;6209238;23;20171;-90
2023/08/15 06:51:54;;;;;;;9.35;5.47;;;;;;;;;;6209524;23;20159;-89
2023/08/15 06:55:03;;;;;;;9.00;5.38;;;;;;;;;;6212315;23;20508;-91
2023/08/15 06:58:08;;;;;;;11.35;5.43;;;;;;;;;;6210445;23;20263;-89
2023/08/15 07:01:13;;;;;;;11.38;5.35;;;;;;;;;;6212017;23;20195;-88
2023/08/15 07:04:19;;;;;;;8.27;5.30;;;;;;;;;;6214471;23;20601;-89
2023/08/15 07:07:26;;;;;;;11.80;5.57;;;;;;;;;;6214363;23;20230;-88
2023/08/15 07:10:31;;;;;;;9.50;5.55;;;;;;;;;;6214137;23;20155;-92
2023/08/15 07:13:36;;;;;;;9.77;5.13;;;;;;;;;;6213547;23;20162;-91
2023/08/15 07:16:41;;;;;;;7.50;5.22;;;;;;;;;;6211829;23;20258;-91
2023/08/15 07:19:48;;;;;;;8.30;4.72;;;;;;;;;;6212967;23;20194;-90
2023/08/15 07:22:55;;;;;;;8.30;4.65;;;;;;;;;;6211675;23;20278;-90
2023/08/15 07:26:00;;;;;;;10.80;4.82;;;;;;;;;;6213652;23;20218;-91
2023/08/15 07:29:06;;;;;;;9.30;4.63;;;;;;;;;;6213463;23;20218;-90
2023/08/15 07:32:11;;;;;;;10.13;4.88;;;;;;;;;;6211636;23;20170;-89
2023/08/15 07:35:19;;;;;;;9.13;4.38;;;;;;;;;;6212385;23;20162;-93
2023/08/15 07:38:25;;;;;;;9.95;4.70;;;;;;;;;;6213648;23;20237;-91
2023/08/15 07:41:30;;;;;;;9.40;4.82;;;;;;;;;;6214082;23;20265;-90
2023/08/15 07:44:36;;;;;;;11.27;4.47;;;;;;;;;;6212043;23;20161;-89
2023/08/15 07:47:41;;;;;;;13.35;4.72;;;;;;;;;;6213771;23;20689;-89
2023/08/15 07:50:50;;;;;;;11.80;4.57;;;;;;;;;;6213448;23;20194;-88
2023/08/15 07:53:56;;;;;;;5.85;4.25;;;;;;;;;;6214555;23;20166;-92
2023/08/15 07:57:02;;;;;;;6.00;4.40;;;;;;;;;;6212594;23;20162;-89
2023/08/15 08:00:08;;;;;;;8.68;4.45;;;;;;;;;;6215031;23;20182;-89
2023/08/15 08:03:19;;;;;;;9.85;4.00;;;;;;;;;;6237232;23;20165;-89
2023/08/15 08:06:25;;;;;;;6.55;3.95;;;;;;;;;;6214776;23;20158;-90
2023/08/15 08:09:38;;;;;;;7.40;4.32;;;;;;;;;;6216634;23;20489;-89
2023/08/15 08:12:45;;;;;;;6.63;4.28;;;;;;;;;;6214895;23;20162;-89
2023/08/15 08:15:51;;;;;;;8.60;4.22;;;;;;;;;;6212120;23;20244;-91
2023/08/15 08:18:57;;;;;;;7.78;3.83;;;;;;;;;;6212026;23;20226;-92
2023/08/15 08:22:03;;;;;;;9.07;4.28;;;;;;;;;;6212306;23;20170;-90
2023/08/15 08:25:19;;;;;;;6.97;4.25;;;;;;;;;;6212221;23;20169;-88
2023/08/15 08:28:24;;;;;;;7.07;4.18;;;;;;;;;;6211470;23;20170;-90
2023/08/15 08:31:29;;;;;;;7.10;4.10;;;;;;;;;;6212183;23;20166;-87
2023/08/15 08:34:34;;;;;;;7.05;4.40;;;;;;;;;;6214306;23;20173;-89
2023/08/15 08:37:40;;;;;;;7.88;4.65;;;;;;;;;;6216818;23;20170;-88
2023/08/15 08:40:47;;;;;;;6.18;3.90;;;;;;;;;;6212584;23;20190;-91
2023/08/15 08:43:58;;;;;;;6.93;4.22;;;;;;;;;;6212065;23;20151;-90
2023/08/15 08:47:04;;;;;;;7.65;4.07;;;;;;;;;;6211849;23;20241;-93
2023/08/15 08:50:10;;;;;;;8.80;4.30;;;;;;;;;;6211598;23;20195;-91
2023/08/15 08:53:16;;;;;;;9.15;4.30;;;;;;;;;;6213989;23;20202;-90
2023/08/15 08:56:23;;;;;;;8.60;4.20;;;;;;;;;;6212279;23;20223;-89
2023/08/15 08:59:29;;;;;;;9.85;4.05;;;;;;;;;;6214248;23;20170;-92
2023/08/15 09:02:35;;;;;;;10.85;4.85;;;;;;;;;;6213428;23;20170;-90
2023/08/15 09:05:43;;;;;;;8.85;4.75;;;;;;;;;;6212849;23;20182;-90
2023/08/15 09:08:48;;;;;;;8.07;4.60;;;;;;;;;;6211658;23;20222;-90
2023/08/15 09:11:54;;;;;;;9.35;5.28;;;;;;;;;;6210954;23;20170;-90
2023/08/15 09:14:59;;;;;;;15.90;5.25;;;;;;;;;;6210718;23;20268;-91
2023/08/15 09:18:06;;;;;;;8.50;4.72;;;;;;;;;;6213388;23;20179;-89
2023/08/15 09:21:14;;;;;;;5.97;4.20;;;;;;;;;;6212410;23;20198;-90
2023/08/15 09:24:19;;;;;;;7.63;4.50;;;;;;;;;;6212267;23;20154;-89
2023/08/15 09:27:31;;;;;;;7.53;4.57;;;;;;;;;;6213160;23;20170;-90
2023/08/15 09:30:36;;;;;;;12.55;5.07;;;;;;;;;;6212723;23;20171;-92
2023/08/15 09:33:44;;;;;;;5.97;3.95;;;;;;;;;;6212196;23;20162;-91
2023/08/15 09:36:50;;;;;;;7.82;4.30;;;;;;;;;;6210972;23;20162;-90
2023/08/15 09:39:55;;;;;;;10.57;4.45;;;;;;;;;;6210571;23;20186;-90
2023/08/15 09:43:02;;;;;;;9.88;4.22;;;;;;;;;;6209542;23;20154;-90
2023/08/15 09:46:07;;;;;;;6.32;4.20;;;;;;;;;;6210853;23;20170;-92
2023/08/15 09:49:12;;;;;;;9.20;4.07;;;;;;;;;;6209481;23;20166;-89
2023/08/15 09:52:18;;;;;;;6.72;4.13;;;;;;;;;;6209972;23;20158;-90
2023/08/15 09:55:24;;;;;;;6.55;4.45;;;;;;;;;;6209675;23;20640;-88
2023/08/15 09:58:43;;;;;;;6.47;4.47;;;;;;;;;;6211371;23;20239;-91
2023/08/15 10:01:51;;;;;;;6.57;4.30;;;;;;;;;;6209032;23;20185;-89
2023/08/15 10:05:01;;;;;;;6.70;4.50;;;;;;;;;;6208718;23;20166;-91
2023/08/15 10:08:06;;;;;;;6.70;4.38;;;;;;;;;;6208908;23;20170;-90
2023/08/15 10:11:12;;;;;;;9.77;4.40;;;;;;;;;;6209480;23;20173;-90
2023/08/15 10:14:19;;;;;;;6.35;4.40;;;;;;;;;;6210030;23;20166;-91
2023/08/15 10:17:26;;;;;;;8.82;4.72;;;;;;;;;;6209462;23;20653;-91
2023/08/15 10:20:36;;;;;;;10.30;4.57;;;;;;;;;;6208873;23;20167;-89
2023/08/15 10:23:42;;;;;;;8.00;4.70;;;;;;;;;;6209290;23;20150;-90
2023/08/15 10:26:47;;;;;;;6.53;3.95;;;;;;;;;;6210804;23;20219;-91
2023/08/15 10:29:53;;;;;;;5.88;4.40;;;;;;;;;;6208328;23;20178;-91
2023/08/15 10:33:02;;;;;;;6.32;4.35;;;;;;;;;;6211048;23;20211;-93
2023/08/15 10:36:08;;;;;;;8.68;4.40;;;;;;;;;;6209917;23;20182;-90
2023/08/15 10:39:18;;;;;;;6.70;4.50;;;;;;;;;;6208170;23;20186;-92
2023/08/15 10:42:23;;;;;;;8.18;4.32;;;;;;;;;;6208319;23;20173;-91
2023/08/15 10:45:28;;;;;;;6.97;4.00;;;;;;;;;;6207466;23;20165;-91
2023/08/15 10:48:44;;;;;;;6.88;4.28;;;;;;;;;;6209155;23;20166;-90
2023/08/15 10:51:49;;;;;;;6.47;4.32;;;;;;;;;;6209044;23;20190;-90
2023/08/15 10:54:54;;;;;;;10.05;4.30;;;;;;;;;;6208748;23;20171;-89
2023/08/15 10:58:01;;;;;;;6.90;4.20;;;;;;;;;;6209845;23;20210;-91
2023/08/15 11:01:07;;;;;;;6.78;4.00;;;;;;;;;;6209085;23;20167;-91
2023/08/15 11:04:19;;;;;;;8.05;4.10;;;;;;;;;;6210686;23;20174;-92
2023/08/15 11:07:25;;;;;;;7.13;4.57;;;;;;;;;;6210004;23;20163;-91
2023/08/15 11:10:30;;;;;;;4.90;4.20;;;;;;;;;;6209632;23;20215;-92
2023/08/15 11:13:38;;;;;;;7.60;4.32;;;;;;;;;;6211152;23;20175;-91
2023/08/15 11:16:43;;;;;;;5.78;3.97;;;;;;;;;;6211392;23;20166;-92
2023/08/15 11:19:49;;;;;;;8.05;4.20;;;;;;;;;;6209929;23;20182;-91
2023/08/15 11:22:57;;;;;;;8.15;3.80;;;;;;;;;;6210196;23;20171;-90
2023/08/15 11:26:02;;;;;;;8.18;4.15;;;;;;;;;;6209188;23;20174;-92
2023/08/15 11:29:10;;;;;;;6.10;4.03;;;;;;;;;;6210144;23;20214;-92
2023/08/15 11:32:15;;;;;;;7.20;4.22;;;;;;;;;;6209447;23;20233;-90
2023/08/15 11:35:22;;;;;;;5.88;3.90;;;;;;;;;;6209102;23;20162;-91
2023/08/15 11:38:29;;;;;;;10.85;4.50;;;;;;;;;;6208959;23;20170;-89
2023/08/15 11:41:34;;;;;;;5.85;4.05;;;;;;;;;;6210039;23;20183;-92
2023/08/15 11:44:40;;;;;;;7.43;4.22;;;;;;;;;;6209264;23;20344;-91
2023/08/15 11:47:53;;;;;;;7.28;4.40;;;;;;;;;;6209703;23;20300;-92
2023/08/15 11:51:00;;;;;;;7.05;4.30;;;;;;;;;;6210058;23;20206;-91
2023/08/15 11:54:05;;;;;;;6.35;4.70;;;;;;;;;;6213665;23;20167;-90
2023/08/15 11:57:10;;;;;;;6.50;4.00;;;;;;;;;;6213364;23;20209;-91
2023/08/15 12:00:17;;;;;;;8.45;4.20;;;;;;;;;;6213460;23;20166;-91
2023/08/15 12:03:23;;;;;;;8.25;4.50;;;;;;;;;;6215661;23;20166;-91
2023/08/15 12:06:30;;;;;;;8.45;5.28;;;;;;;;;;6213064;23;20317;-90
2023/08/15 12:09:35;;;;;;;9.38;4.55;;;;;;;;;;6211356;23;20210;-91
2023/08/15 12:12:41;;;;;;;8.40;4.80;;;;;;;;;;6211099;23;20198;-91
2023/08/15 12:15:46;;;;;;;8.43;4.88;;;;;;;;;;6211134;23;20222;-90
2023/08/15 12:18:51;;;;;;;8.65;5.10;;;;;;;;;;6211829;23;20549;-91
2023/08/15 12:21:58;;;;;;;7.20;4.70;;;;;;;;;;6209883;23;20167;-91
2023/08/15 12:25:04;;;;;;;7.97;5.05;;;;;;;;;;6212493;23;20218;-93
2023/08/15 12:28:10;;;;;;;9.35;4.88;;;;;;;;;;6211928;23;20295;-92
2023/08/15 12:31:16;;;;;;;5.90;4.85;;;;;;;;;;6210173;23;20202;-91
2023/08/15 12:34:21;;;;;;;7.05;4.80;;;;;;;;;;6210591;23;20170;-91
2023/08/15 12:37:27;;;;;;;11.90;5.15;;;;;;;;;;6213149;23;20254;-93
2023/08/15 12:40:32;;;;;;;10.02;4.82;;;;;;;;;;6213426;23;20497;-90
2023/08/15 12:43:38;;;;;;;9.23;4.82;;;;;;;;;;6212460;23;20174;-92
2023/08/15 12:46:43;;;;;;;8.05;4.75;;;;;;;;;;6213247;23;20170;-90
2023/08/15 12:49:48;;;;;;;5.72;4.80;;;;;;;;;;6212423;23;20193;-90
2023/08/15 12:52:56;;;;;;;7.85;4.90;;;;;;;;;;6210813;23;20271;-90
2023/08/15 12:56:01;;;;;;;7.03;4.40;;;;;;;;;;6211978;23;20176;-90
2023/08/15 12:59:06;;;;;;;8.32;5.50;;;;;;;;;;6212855;23;20170;-91
2023/08/15 13:02:11;;;;;;;7.18;4.40;;;;;;;;;;6212427;23;20166;-91
2023/08/15 13:05:17;;;;;;;6.70;4.63;;;;;;;;;;6212626;23;20161;-90
2023/08/15 13:08:24;;;;;;;8.52;4.63;;;;;;;;;;6216472;23;20216;-92
2023/08/15 13:11:29;;;;;;;5.70;4.95;;;;;;;;;;6213344;23;20265;-92
2023/08/15 13:14:33;;;;;;;8.82;4.85;;;;;;;;;;6212308;23;20768;-92
2023/08/15 13:17:39;;;;;;;6.72;4.78;;;;;;;;;;6210357;23;20243;-91
2023/08/15 13:20:44;;;;;;;8.23;4.90;;;;;;;;;;6209314;23;20218;-92
2023/08/15 13:23:51;;;;;;;7.35;5.32;;;;;;;;;;6210701;23;20266;-91
2023/08/15 13:26:56;;;;;;;10.73;5.25;;;;;;;;;;6209108;23;20169;-92
2023/08/15 13:30:01;;;;;;;6.32;4.60;;;;;;;;;;6208301;23;20505;-91
2023/08/15 13:33:06;;;;;;;11.95;5.30;;;;;;;;;;6209148;23;20525;-90
2023/08/15 13:36:11;;;;;;;8.15;4.80;;;;;;;;;;6210340;23;20183;-91
2023/08/15 13:39:17;;;;;;;8.43;5.00;;;;;;;;;;6210665;23;20167;-92
2023/08/15 13:42:22;;;;;;;5.80;4.63;;;;;;;;;;6211140;23;20213;-92
2023/08/15 13:45:28;;;;;;;9.55;5.20;;;;;;;;;;6213064;23;20170;-91
2023/08/15 13:48:34;;;;;;;8.75;5.40;;;;;;;;;;6209538;23;20159;-90
2023/08/15 13:51:39;;;;;;;8.63;5.45;;;;;;;;;;6208918;23;20206;-90
2023/08/15 13:54:46;;;;;;;6.78;5.28;;;;;;;;;;6211068;23;20702;-90
2023/08/15 13:57:51;;;;;;;8.60;5.60;;;;;;;;;;6211187;23;20210;-91
2023/08/15 14:00:56;;;;;;;6.88;5.20;;;;;;;;;;6211702;23;20247;-90
2023/08/15 14:04:01;;;;;;;7.60;5.20;;;;;;;;;;6209571;23;20290;-91
2023/08/15 14:07:06;;;;;;;9.43;5.28;;;;;;;;;;6208297;23;20166;-91
2023/08/15 14:10:22;;;;;;;9.32;5.28;;;;;;;;;;6208224;23;20302;-92
2023/08/15 14:13:27;;;;;;;6.15;4.93;;;;;;;;;;6210870;23;20194;-92
2023/08/15 14:16:32;;;;;;;9.00;4.57;;;;;;;;;;6210437;23;20174;-90
2023/08/15 14:19:37;;;;;;;10.27;4.85;;;;;;;;;;6227664;23;20161;-91
2023/08/15 14:22:43;;;;;;;8.23;4.88;;;;;;;;;;6208145;23;20210;-90
2023/08/15 14:25:49;;;;;;;7.65;4.88;;;;;;;;;;6208062;23;20234;-90
2023/08/15 14:28:55;;;;;;;5.85;4.10;;;;;;;;;;6207161;23;20605;-90
2023/08/15 14:32:01;;;;;;;5.50;4.55;;;;;;;;;;6207740;23;20210;-91
2023/08/15 14:35:07;;;;;;;8.63;4.40;;;;;;;;;;6207584;23;20239;-91
2023/08/15 14:38:12;;;;;;;5.80;4.30;;;;;;;;;;6209540;23;20169;-91
2023/08/15 14:41:18;;;;;;;6.30;4.63;;;;;;;;;;6207236;23;20194;-92
2023/08/15 14:44:24;;;;;;;11.90;4.38;;;;;;;;;;6211756;23;20153;-91
2023/08/15 14:47:29;;;;;;;6.00;4.45;;;;;;;;;;6208594;23;20175;-90
2023/08/15 14:50:35;;;;;;;5.55;4.05;;;;;;;;;;6208140;23;20314;-90
2023/08/15 14:53:40;;;;;;;6.65;3.95;;;;;;;;;;6209385;23;20313;-90
2023/08/15 14:56:47;;;;;;;9.50;4.10;;;;;;;;;;6206771;23;20167;-91
2023/08/15 14:59:52;;;;;;;6.28;4.13;;;;;;;;;;6206939;23;20174;-93
2023/08/15 15:02:57;;;;;;;5.78;3.95;;;;;;;;;;6207936;23;20179;-89
2023/08/15 15:06:02;;;;;;;8.93;4.10;;;;;;;;;;6207597;23;20154;-89
2023/08/15 15:09:07;;;;;;;8.00;4.78;;;;;;;;;;6207385;23;20149;-90
2023/08/15 15:12:14;;;;;;;5.28;4.03;;;;;;;;;;6208388;23;20233;-89
2023/08/15 15:15:19;;;;;;;8.00;4.47;;;;;;;;;;6208893;23;20499;-90
2023/08/15 15:18:24;;;;;;;6.78;4.55;;;;;;;;;;6211876;23;20166;-89
2023/08/15 15:21:29;;;;;;;7.38;4.57;;;;;;;;;;6208619;23;20166;-89
2023/08/15 15:24:34;;;;;;;8.23;4.60;;;;;;;;;;6211471;23;20151;-90
2023/08/15 15:27:40;;;;;;;7.50;4.90;;;;;;;;;;6212718;23;20166;-89
2023/08/15 15:30:46;;;;;;;7.60;4.63;;;;;;;;;;6209616;23;20186;-90
2023/08/15 15:33:54;;;;;;;9.32;4.88;;;;;;;;;;6213289;23;20221;-90
2023/08/15 15:36:59;;;;;;;8.82;4.78;;;;;;;;;;6209402;23;20167;-90
2023/08/15 15:40:04;;;;;;;10.50;5.07;;;;;;;;;;6211476;23;20150;-90
2023/08/15 15:43:11;;;;;;;7.95;5.00;;;;;;;;;;6212813;23;20625;-89
2023/08/15 15:46:17;;;;;;;8.43;5.03;;;;;;;;;;6211528;23;20175;-89
2023/08/15 15:49:22;;;;;;;10.23;5.40;;;;;;;;;;6209220;23;20174;-90
2023/08/15 15:52:27;;;;;;;9.35;5.70;;;;;;;;;;6210599;23;20234;-91
2023/08/15 15:55:32;;;;;;;7.57;5.10;;;;;;;;;;6212244;23;20242;-91
2023/08/15 15:58:40;;;;;;;10.77;4.97;;;;;;;;;;6212180;23;20166;-90
2023/08/15 16:01:45;;;;;;;9.73;5.45;;;;;;;;;;6213146;23;20177;-90
2023/08/15 16:04:51;;;;;;;9.32;5.47;;;;;;;;;;6213403;23;20166;-90
2023/08/15 16:07:56;;;;;;;9.98;5.15;;;;;;;;;;6210228;23;20174;-90
2023/08/15 16:11:01;;;;;;;7.88;5.35;;;;;;;;;;6209523;23;20174;-90
2023/08/15 16:14:08;;;;;;;8.73;5.32;;;;;;;;;;6212550;23;20198;-91
2023/08/15 16:17:13;;;;;;;7.82;5.10;;;;;;;;;;6210106;23;20239;-89
2023/08/15 16:20:18;;;;;;;10.05;5.95;;;;;;;;;;6210627;23;20166;-89
2023/08/15 16:23:23;;;;;;;10.80;6.47;;;;;;;;;;6210247;23;20627;-89
2023/08/15 16:26:29;;;;;;;16.33;8.60;;;;;;;;;;6212604;23;20178;-89
2023/08/15 16:29:38;;;;;;;11.82;5.05;;;;;;;;;;6213623;23;20188;-90
2023/08/15 16:32:45;;;;;;;15.32;4.30;;;;;;;;;;6212593;23;20283;-90
2023/08/15 16:35:50;;;;;;;8.32;3.65;;;;;;;;;;6211704;23;20163;-91
2023/08/15 16:38:55;;;;;;;8.77;3.13;;;;;;;;;;6209343;23;20227;-91
2023/08/15 16:42:03;;;;;;;12.40;3.38;;;;;;;;;;6208829;23;20163;-91
2023/08/15 16:45:10;;;;;;;7.45;3.20;;;;;;;;;;6208548;23;20210;-88
2023/08/15 16:48:15;;;;;;;9.73;3.50;;;;;;;;;;6208680;23;20171;-90
2023/08/15 16:51:20;;;;;;;6.18;2.90;;;;;;;;;;6212550;23;20195;-89
2023/08/15 16:54:25;;;;;;;6.93;2.85;;;;;;;;;;6209690;23;20167;-87
2023/08/15 16:57:35;;;;;;;9.77;3.03;;;;;;;;;;6208732;23;20449;-92
2023/08/15 17:01:00;;;;;;;11.65;3.45;;;;;;;;;;6209291;23;20302;-89
2023/08/15 17:04:08;;;;;;;8.27;4.72;;;;;;;;;;6212755;23;20187;-91
2023/08/15 17:07:13;;;;;;;7.43;3.03;;;;;;;;;;6211497;23;20174;-90
2023/08/15 17:10:18;;;;;;;7.55;3.47;;;;;;;;;;6211614;23;20166;-90
2023/08/15 17:13:23;;;;;;;7.50;3.20;;;;;;;;;;6211770;23;20206;-90
2023/08/15 17:16:28;;;;;;;12.20;3.35;;;;;;;;;;6213752;23;20179;-89
2023/08/15 17:19:34;;;;;;;8.30;3.28;;;;;;;;;;6210908;23;20241;-89
2023/08/15 17:22:40;;;;;;;8.15;3.40;;;;;;;;;;6211862;23;20191;-90
2023/08/15 17:25:45;;;;;;;6.93;3.85;;;;;;;;;;6210419;23;20190;-89
2023/08/15 17:28:52;;;;;;;9.60;3.50;;;;;;;;;;6214972;23;20171;-91
2023/08/15 17:31:57;;;;;;;12.85;3.85;;;;;;;;;;6212149;23;20171;-89
2023/08/15 17:35:04;;;;;;;11.52;3.92;;;;;;;;;;6212870;23;20232;-91
2023/08/15 17:38:10;;;;;;;9.50;3.40;;;;;;;;;;6210195;23;20188;-92
2023/08/15 17:41:15;;;;;;;7.28;3.55;;;;;;;;;;6212887;23;20159;-93
2023/08/15 17:44:20;;;;;;;10.63;3.45;;;;;;;;;;6211040;23;20253;-91
2023/08/15 17:47:25;;;;;;;5.75;3.58;;;;;;;;;;6216881;23;20259;-92
2023/08/15 17:50:33;;;;;;;7.22;3.60;;;;;;;;;;6212708;23;20247;-88
2023/08/15 17:53:38;;;;;;;8.30;3.38;;;;;;;;;;6211325;23;20194;-92
2023/08/15 17:56:44;;;;;;;7.45;3.70;;;;;;;;;;6212300;23;20218;-92
2023/08/15 17:59:49;;;;;;;8.48;3.45;;;;;;;;;;6211109;23;20259;-88
2023/08/15 18:02:54;;;;;;;7.15;3.00;;;;;;;;;;6212782;23;20166;-90
2023/08/15 18:06:01;;;;;;;8.15;3.30;;;;;;;;;;6215229;23;20206;-89
2023/08/15 18:09:09;;;;;;;13.45;3.67;;;;;;;;;;6215858;23;20155;-88
2023/08/15 18:12:14;;;;;;;10.95;3.80;;;;;;;;;;6213785;23;20175;-90
2023/08/15 18:15:19;;;;;;;8.13;4.03;;;;;;;;;;6213595;23;20231;-89
2023/08/15 18:18:24;;;;;;;10.93;4.78;;;;;;;;;;6211438;23;20182;-89
2023/08/15 18:21:31;;;;;;;24.00;11.40;;;;;;;;;;6212029;23;20231;-88
2023/08/15 18:24:36;;;;;;;7.90;3.70;;;;;;;;;;6211207;23;20270;-88
2023/08/15 18:27:41;;;;;;;7.68;3.80;;;;;;;;;;6208115;23;20214;-88
2023/08/15 18:30:46;;;;;;;4.95;3.42;;;;;;;;;;6210993;23;20147;-92